Ithaca, New York
Current Conditions -  °F | °C
As of 8:56 PM on Thursday 18 Dec 2014 (Local Time) from KITH Reporting Station
Light Snow Light Snow  
Wind Chill: -7°   Ceiling: 1100
Heat Index: -1°   Visibility: 10mi
Dew Point: -2°   Wind: 15mph
Humidity: 92%   Direction: 320°NW
Pressure: 30"   Gusts: NA
Location:  42.44°N, 76.49°W
Report Text: KITH 190156Z 32013KT 10SM -SN OVC011 M01/M02 A3000 RMK AO2 T10111022 UPB01E05FZRAB05E06SNE01B02E04B06 P0000 SLP172
Loading
Personal Weather Stations






























Interactive Weather Map New forecast layout! Learn more

10-Day Weather Forecast

Advertisements
Track Severe Weather on mobile